Westerlo, Belgium
Current Conditions -  °F | °C
As of 10:25 PM on Sunday 25 Jan 2015 (Local Time) from EBDT Reporting Station
Overcast Overcast  
Wind Chill: 32°   Ceiling: 4300
Heat Index: 37°   Visibility: 4mi
Dew Point: 36°   Wind: 7mph
Humidity: 93%   Direction: 190°S
Pressure: 30.36"   Gusts: NA
Location:  51.09°N, 4.92°E
Report Text: EBDT 252125Z AUTO 19006KT 7000 FEW019/// BKN043/// OVC055/// 03/02 Q1028 WHT
Loading
Personal Weather Stations






























Interactive Weather Map New forecast layout! Learn more

10-Day Weather Forecast

Advertisements
Track Severe Weather on mobile